PPR Request

Ennakkolupa on pakollinen lentoonlähtöjä ja laskuja varten. Pyydä ennakkolupa tästä.

Aerodrome Status

Updated 30 APR 2017 23:42 LT

  • EFHF ATIS 122.700 operational! Automatic weather data, use with caution.
  • AWS-METAR (ILHF) available at http://www.ilmailusaa.fi.
  • Taxiway K, L and A lights U/S.
  • APR, TWY, RWY: good condition except small patches of water, damp
  • Continuous flying in traffic circuit (touch and go landings) not permitted on the first of May. (REF AIP GEN 2.1 - 4)
  • Preferred runway:

Contact duty officer at +358 20 7545 129 for more information.

Weather


Helsinki Malmi lentokenttä
AWS ILHF 302210Z AUTO 20006KT CAVOK 02/00 Q1024=

METAR EFHK 302220Z 19009KT CAVOK 01/M00 Q1024 NOSIG=
TAF EFHK 302026Z 3021/0121 21007KT CAVOK=

Laskukierroslentäminen

Laskukierroslentäminen vaatii ennakkoluvan. Laskukierrosvaraukset puhelimitse Kenttäpäivystäjälle 020 7545 129.

Laskukierroslentäminen on mahdollista seuraavina aikoina (paikallista aikaa):

  • maanantaista perjantaihin 09.00–19.00
  • lauantaisin 10.00–17.00
  • sunnuntaisin 11.00–17.00

Muina aikoina sekä yleisinä arkipyhä- ja juhlapäivinä (REF AIP GEN 2.1-4) laskukierroslentäminen on kielletty.